Time;durP1;ratioP1;P1;durP2;ratioP2;P2;SDS_P1;SDS_P2;PMS_P1;PMS_P2;Temp;Humidity;BMP_temperature;BMP_pressure;BME280_temperature;BME280_humidity;BME280_pressure;Samples;Min_cycle;Max_cycle;Signal;HPM_P1;HPM_P2
2022/07/25 00:00:53;;;;;;;5.95;2.83;;;21.10;99.90;;;;;;10267706;28;20474;-62
2022/07/25 00:05:55;;;;;;;3.47;2.22;;;21.00;99.90;;;;;;10272778;28;20066;-61
2022/07/25 00:10:56;;;;;;;4.00;2.70;;;21.00;99.90;;;;;;10282351;28;20038;-63
2022/07/25 00:15:58;;;;;;;6.43;3.10;;;20.90;99.90;;;;;;10280352;28;20050;-62
2022/07/25 00:21:00;;;;;;;5.60;3.25;;;20.90;99.90;;;;;;10302949;28;20080;-62
2022/07/25 00:26:02;;;;;;;4.03;2.63;;;20.80;99.90;;;;;;10288315;28;20136;-62
2022/07/25 00:31:03;;;;;;;4.22;3.13;;;20.90;99.90;;;;;;10284443;28;20100;-62
2022/07/25 00:36:06;;;;;;;4.72;3.00;;;20.90;99.90;;;;;;10287906;28;20078;-62
2022/07/25 00:41:08;;;;;;;8.75;2.90;;;20.70;99.90;;;;;;10282105;28;20544;-62
2022/07/25 00:46:16;;;;;;;6.80;3.45;;;20.70;99.90;;;;;;10291490;28;20046;-62
2022/07/25 00:51:19;;;;;;;5.60;3.00;;;20.60;99.90;;;;;;10303417;28;20057;-61
2022/07/25 00:56:21;;;;;;;4.50;3.10;;;20.50;99.90;;;;;;10306226;28;20108;-61
2022/07/25 01:01:23;;;;;;;6.38;3.25;;;20.40;99.90;;;;;;10297853;28;20358;-63
2022/07/25 01:06:26;;;;;;;5.95;2.78;;;20.30;99.90;;;;;;10275555;28;20133;-63
2022/07/25 01:11:28;;;;;;;4.38;2.42;;;20.20;99.90;;;;;;10281965;28;20043;-63
2022/07/25 01:16:29;;;;;;;4.63;3.03;;;20.10;99.90;;;;;;10285331;28;20047;-63
2022/07/25 01:21:31;;;;;;;4.03;2.95;;;20.00;99.90;;;;;;10294295;28;20053;-63
2022/07/25 01:26:33;;;;;;;4.53;2.65;;;20.00;99.90;;;;;;10299374;28;20501;-63
2022/07/25 01:31:35;;;;;;;5.75;3.13;;;19.90;99.90;;;;;;10301849;28;20101;-63
2022/07/25 01:36:36;;;;;;;5.00;2.70;;;19.90;99.90;;;;;;10297166;28;20426;-63
2022/07/25 01:41:38;;;;;;;4.85;2.67;;;19.80;99.90;;;;;;10308083;28;20042;-63
2022/07/25 01:46:40;;;;;;;3.88;2.70;;;19.80;99.90;;;;;;10299775;28;20065;-63
2022/07/25 01:51:41;;;;;;;3.53;2.50;;;19.70;99.90;;;;;;10287708;28;20085;-63
2022/07/25 01:56:44;;;;;;;8.43;2.95;;;19.70;99.90;;;;;;10287292;28;20468;-63
2022/07/25 02:01:49;;;;;;;8.00;2.60;;;19.60;99.90;;;;;;10301080;28;20054;-65
2022/07/25 02:06:51;;;;;;;4.45;2.40;;;19.60;99.90;;;;;;10287401;28;20074;-65
2022/07/25 02:11:52;;;;;;;4.80;2.67;;;19.60;99.90;;;;;;10299375;28;20736;-63
2022/07/25 02:16:54;;;;;;;8.07;3.00;;;19.50;99.90;;;;;;10309794;28;20068;-63
2022/07/25 02:21:56;;;;;;;4.05;3.05;;;19.50;99.90;;;;;;10293469;28;20119;-63
2022/07/25 02:26:58;;;;;;;5.22;3.33;;;19.50;99.90;;;;;;10277556;28;20058;-64
2022/07/25 02:32:00;;;;;;;5.00;3.30;;;19.30;99.90;;;;;;10278997;28;20142;-64
2022/07/25 02:37:02;;;;;;;5.32;3.50;;;19.20;99.90;;;;;;10319985;28;20050;-63
2022/07/25 02:42:03;;;;;;;6.03;3.20;;;19.30;99.90;;;;;;10299407;28;20046;-63
2022/07/25 02:47:05;;;;;;;6.55;2.58;;;19.20;99.90;;;;;;10307775;28;20046;-63
2022/07/25 02:52:07;;;;;;;9.52;3.28;;;19.20;99.90;;;;;;10295486;28;20555;-63
2022/07/25 02:57:08;;;;;;;6.72;3.03;;;19.20;99.90;;;;;;10296851;28;20389;-64
2022/07/25 03:02:10;;;;;;;6.82;3.42;;;19.20;99.90;;;;;;10290070;28;20405;-63
2022/07/25 03:07:12;;;;;;;5.30;2.88;;;19.10;99.90;;;;;;10298596;28;20124;-64
2022/07/25 03:12:13;;;;;;;6.68;3.08;;;19.00;99.90;;;;;;10298762;28;20047;-63
2022/07/25 03:17:15;;;;;;;7.28;3.33;;;19.10;99.90;;;;;;10286844;28;20155;-61
2022/07/25 03:22:17;;;;;;;3.92;2.85;;;19.00;99.90;;;;;;10285143;28;20051;-61
2022/07/25 03:27:19;;;;;;;6.78;3.25;;;19.00;99.90;;;;;;10289937;28;20920;-61
2022/07/25 03:32:22;;;;;;;5.72;3.05;;;18.90;99.90;;;;;;10302007;28;20050;-61
2022/07/25 03:37:23;;;;;;;7.25;3.60;;;18.90;99.90;;;;;;10298604;28;20046;-61
2022/07/25 03:42:25;;;;;;;11.45;4.70;;;18.90;99.90;;;;;;10288925;28;20402;-60
2022/07/25 03:47:27;;;;;;;7.85;4.25;;;18.90;99.90;;;;;;10299697;28;20133;-60
2022/07/25 03:52:29;;;;;;;10.60;4.50;;;18.80;99.90;;;;;;10302875;28;20061;-60
2022/07/25 03:57:30;;;;;;;5.35;3.88;;;18.90;99.90;;;;;;10299198;28;20058;-59
2022/07/25 04:02:32;;;;;;;6.82;3.88;;;18.90;99.90;;;;;;10295062;28;20378;-60
2022/07/25 04:07:35;;;;;;;6.13;4.15;;;18.90;99.90;;;;;;10292676;28;20046;-64
2022/07/25 04:12:38;;;;;;;6.63;3.70;;;18.90;99.90;;;;;;10314002;28;20133;-64
2022/07/25 04:17:40;;;;;;;6.90;4.07;;;18.80;99.90;;;;;;10316247;28;20100;-63
2022/07/25 04:22:42;;;;;;;6.03;4.13;;;18.80;99.90;;;;;;10315547;28;20104;-63
2022/07/25 04:27:47;;;;;;;7.93;4.10;;;18.80;99.90;;;;;;10312744;28;20057;-63
2022/07/25 04:32:49;;;;;;;8.02;4.22;;;18.90;99.90;;;;;;10314870;28;20050;-63
2022/07/25 04:37:51;;;;;;;7.75;4.18;;;18.90;99.90;;;;;;10300048;28;20062;-63
2022/07/25 04:42:53;;;;;;;9.52;4.13;;;19.00;99.90;;;;;;10318859;28;20046;-63
2022/07/25 04:47:54;;;;;;;8.30;4.25;;;19.10;99.90;;;;;;10310043;28;20050;-63
2022/07/25 04:52:56;;;;;;;6.10;3.75;;;19.20;99.90;;;;;;10308365;28;20464;-62
2022/07/25 04:57:59;;;;;;;9.00;4.60;;;19.30;99.90;;;;;;10293244;28;20112;-63
2022/07/25 05:03:00;;;;;;;6.20;3.95;;;19.40;99.90;;;;;;10310562;28;20050;-63
2022/07/25 05:08:02;;;;;;;9.15;4.00;;;19.50;99.90;;;;;;10285191;28;20054;-64
2022/07/25 05:13:04;;;;;;;6.80;3.90;;;19.60;99.90;;;;;;10247420;28;20380;-64
2022/07/25 05:18:06;;;;;;;9.70;5.97;;;19.70;99.90;;;;;;10259358;28;20043;-64
2022/07/25 05:23:08;;;;;;;8.45;4.53;;;19.80;99.90;;;;;;10273769;28;20111;-66
2022/07/25 05:28:09;;;;;;;8.20;4.60;;;20.00;99.90;;;;;;10271294;28;20082;-64
2022/07/25 05:33:11;;;;;;;7.15;3.25;;;20.10;99.90;;;;;;10265353;28;20050;-64
2022/07/25 05:38:13;;;;;;;6.50;3.70;;;20.20;99.90;;;;;;10252093;28;20097;-65
2022/07/25 05:43:14;;;;;;;6.05;3.33;;;20.30;99.90;;;;;;10265568;28;20102;-66
2022/07/25 05:48:16;;;;;;;5.95;4.07;;;20.40;99.90;;;;;;10259597;28;20105;-65
2022/07/25 05:53:18;;;;;;;6.60;4.07;;;20.60;99.90;;;;;;10282630;28;20046;-65
2022/07/25 05:58:20;;;;;;;6.20;3.67;;;20.60;99.90;;;;;;10266888;28;20051;-65
2022/07/25 06:03:28;;;;;;;5.30;3.95;;;20.80;99.90;;;;;;10279046;28;20062;-66
2022/07/25 06:08:30;;;;;;;8.05;4.20;;;20.90;99.90;;;;;;10295886;28;22746;-65
2022/07/25 06:13:32;;;;;;;7.63;4.05;;;21.10;99.90;;;;;;10298072;28;20447;-67
2022/07/25 06:18:35;;;;;;;7.43;4.30;;;21.20;99.90;;;;;;10287113;28;20046;-66
2022/07/25 06:23:36;;;;;;;7.55;4.25;;;21.30;99.90;;;;;;10293235;28;20050;-66
2022/07/25 06:28:38;;;;;;;3.08;2.67;;;21.50;99.90;;;;;;10285864;28;20047;-66
2022/07/25 06:33:40;;;;;;;8.88;4.30;;;21.70;99.90;;;;;;10294206;28;20047;-66
2022/07/25 06:38:41;;;;;;;6.32;4.03;;;21.90;99.90;;;;;;10311493;28;20054;-65
2022/07/25 06:43:43;;;;;;;7.75;4.03;;;22.10;99.90;;;;;;10293735;28;20043;-65
2022/07/25 06:48:45;;;;;;;7.13;4.10;;;22.30;99.90;;;;;;10294157;28;20042;-65
2022/07/25 06:53:47;;;;;;;7.93;3.90;;;22.60;99.90;;;;;;10280358;28;20079;-65
2022/07/25 06:58:49;;;;;;;8.65;4.10;;;22.70;99.90;;;;;;10292256;28;20126;-65
2022/07/25 07:03:51;;;;;;;10.88;4.50;;;23.00;99.90;;;;;;10304966;28;20062;-66
2022/07/25 07:08:53;;;;;;;10.10;4.20;;;23.30;99.90;;;;;;10307038;28;20046;-66
2022/07/25 07:13:54;;;;;;;6.03;3.92;;;23.50;99.90;;;;;;10315169;28;20760;-65
2022/07/25 07:18:57;;;;;;;11.48;4.13;;;23.70;99.90;;;;;;10299463;28;20051;-65
2022/07/25 07:23:58;;;;;;;7.35;4.20;;;24.10;99.90;;;;;;10309041;28;20508;-65
2022/07/25 07:29:01;;;;;;;8.75;3.88;;;24.40;99.90;;;;;;10296771;28;20062;-65
2022/07/25 07:34:04;;;;;;;11.40;4.88;;;24.80;99.90;;;;;;10308870;28;20053;-65
2022/07/25 07:39:05;;;;;;;7.13;3.75;;;25.00;99.90;;;;;;10309181;28;20058;-65
2022/07/25 07:44:08;;;;;;;6.15;4.20;;;25.40;99.90;;;;;;10297014;28;20698;-65
2022/07/25 07:49:10;;;;;;;12.30;4.10;;;25.70;99.90;;;;;;10291427;28;20047;-65
2022/07/25 07:59:32;;;;;;;8.35;5.07;;;26.20;99.90;;;;;;10310181;28;20053;-65
2022/07/25 08:04:34;;;;;;;7.85;4.15;;;26.40;99.90;;;;;;10306792;28;20054;-66
2022/07/25 08:09:36;;;;;;;5.85;4.10;;;26.40;99.90;;;;;;10302946;28;20050;-65
2022/07/25 08:14:37;;;;;;;6.15;3.95;;;26.80;99.90;;;;;;10297606;28;20043;-65
2022/07/25 08:19:39;;;;;;;5.45;3.65;;;27.00;99.90;;;;;;10304575;28;20054;-65
2022/07/25 08:24:41;;;;;;;8.07;4.20;;;27.10;99.70;;;;;;10298221;28;20047;-65
2022/07/25 08:29:42;;;;;;;9.68;5.07;;;27.40;99.80;;;;;;10296417;28;20046;-65
2022/07/25 08:34:44;;;;;;;8.88;4.03;;;27.50;98.90;;;;;;10282262;28;20064;-65
2022/07/25 08:39:46;;;;;;;8.55;4.00;;;27.80;99.90;;;;;;10296345;28;20054;-65
2022/07/25 08:44:56;;;;;;;4.25;3.67;;;27.90;99.60;;;;;;10305109;28;20501;-64
2022/07/25 08:49:58;;;;;;;5.10;3.55;;;28.10;98.90;;;;;;10307198;28;20050;-65
2022/07/25 08:55:08;;;;;;;11.32;4.18;;;28.30;98.00;;;;;;10295041;28;20097;-65
2022/07/25 09:00:12;;;;;;;5.80;4.03;;;28.50;98.10;;;;;;10302484;28;20125;-65
2022/07/25 09:05:14;;;;;;;8.75;4.35;;;28.70;97.00;;;;;;10312988;28;20047;-65
2022/07/25 09:10:26;;;;;;;4.05;3.47;;;28.70;97.20;;;;;;10303233;28;20136;-66
2022/07/25 09:15:28;;;;;;;5.80;3.90;;;29.00;96.20;;;;;;10303451;28;20046;-64
2022/07/25 09:20:48;;;;;;;6.68;4.07;;;29.10;95.90;;;;;;10299570;28;20038;-64
2022/07/25 09:25:49;;;;;;;4.07;3.63;;;29.20;95.40;;;;;;10306058;28;20054;-64
2022/07/25 09:30:53;;;;;;;3.90;3.50;;;29.70;95.40;;;;;;10295238;28;20497;-65
2022/07/25 09:35:55;;;;;;;4.28;3.60;;;30.10;94.60;;;;;;10298731;28;20050;-66
2022/07/25 09:41:00;;;;;;;4.13;3.25;;;30.40;93.50;;;;;;10304213;28;20756;-64
2022/07/25 09:46:03;;;;;;;4.40;3.20;;;30.60;92.60;;;;;;10296527;28;20051;-65
2022/07/25 09:51:06;;;;;;;4.55;3.22;;;30.90;92.00;;;;;;10306072;28;20085;-65
2022/07/25 09:56:07;;;;;;;6.18;3.40;;;30.90;91.00;;;;;;10289813;28;20109;-65
2022/07/25 10:01:16;;;;;;;3.53;2.88;;;31.00;90.90;;;;;;10303106;28;20053;-65
2022/07/25 10:06:26;;;;;;;6.13;3.22;;;31.30;90.20;;;;;;10306982;28;20108;-65
2022/07/25 10:11:31;;;;;;;4.20;3.30;;;31.30;90.00;;;;;;10285152;28;20489;-65
2022/07/25 10:16:47;;;;;;;2.97;2.78;;;31.20;89.20;;;;;;10275649;28;20527;-65
2022/07/25 10:21:54;;;;;;;5.20;3.28;;;31.40;87.80;;;;;;10282917;28;20062;-64
2022/07/25 10:26:56;;;;;;;4.28;3.38;;;31.50;87.20;;;;;;10277657;28;20553;-64
2022/07/25 10:32:06;;;;;;;4.63;3.38;;;31.80;85.50;;;;;;10285442;28;20079;-65
2022/07/25 10:37:14;;;;;;;5.97;3.40;;;31.80;85.60;;;;;;10300145;28;20046;-64
2022/07/25 10:42:20;;;;;;;4.25;3.47;;;31.90;84.30;;;;;;10286841;28;20063;-64
2022/07/25 10:47:25;;;;;;;3.88;3.38;;;32.40;82.30;;;;;;10290179;28;20105;-64
2022/07/25 10:52:28;;;;;;;5.03;3.60;;;32.30;81.20;;;;;;10304799;28;20077;-65
2022/07/25 10:57:30;;;;;;;4.22;3.17;;;32.50;80.30;;;;;;10284924;28;20055;-65
2022/07/25 11:02:32;;;;;;;4.25;3.30;;;32.90;79.90;;;;;;10300299;28;20058;-65
2022/07/25 11:07:34;;;;;;;6.07;3.20;;;33.00;78.20;;;;;;10306235;28;20698;-65
2022/07/25 11:12:36;;;;;;;4.50;2.88;;;33.20;77.30;;;;;;10295031;28;20046;-66
2022/07/25 11:17:49;;;;;;;3.28;2.67;;;33.60;75.70;;;;;;10306262;28;20081;-65
2022/07/25 11:22:54;;;;;;;5.00;3.00;;;34.10;73.60;;;;;;10291195;28;20445;-66
2022/07/25 11:27:57;;;;;;;5.20;2.80;;;33.70;73.30;;;;;;10307333;28;20042;-66
2022/07/25 11:33:02;;;;;;;3.97;3.17;;;33.50;73.10;;;;;;10311821;28;20047;-66
2022/07/25 11:38:04;;;;;;;4.95;2.80;;;33.30;73.50;;;;;;10290023;28;20137;-66
2022/07/25 11:43:07;;;;;;;5.28;3.20;;;33.30;73.50;;;;;;10310443;28;20053;-66
2022/07/25 11:48:13;;;;;;;6.20;3.15;;;33.50;72.60;;;;;;10302748;28;20046;-65
2022/07/25 11:53:17;;;;;;;7.30;2.90;;;34.00;71.40;;;;;;10278387;28;20058;-65
2022/07/25 11:58:22;;;;;;;7.07;2.83;;;34.20;70.70;;;;;;10295613;28;20046;-66
2022/07/25 12:03:23;;;;;;;6.60;3.20;;;34.40;71.10;;;;;;10300847;28;20100;-65
2022/07/25 12:08:25;;;;;;;4.53;3.13;;;33.90;71.80;;;;;;10303525;28;20055;-66
2022/07/25 12:13:29;;;;;;;3.53;3.08;;;33.80;70.60;;;;;;10288092;28;20114;-65
2022/07/25 12:18:31;;;;;;;5.17;2.77;;;33.50;71.50;;;;;;10287007;28;20617;-64
2022/07/25 12:23:33;;;;;;;5.10;3.10;;;34.10;71.30;;;;;;10297366;28;20043;-64
2022/07/25 12:28:35;;;;;;;3.28;2.60;;;34.30;69.50;;;;;;10288180;28;20053;-66
2022/07/25 12:33:37;;;;;;;4.90;2.63;;;34.50;70.10;;;;;;10298729;28;20109;-64
2022/07/25 12:38:38;;;;;;;4.97;2.28;;;34.60;67.90;;;;;;10288143;28;20054;-65
2022/07/25 12:43:40;;;;;;;4.78;2.38;;;34.60;69.60;;;;;;10294149;28;20049;-64
2022/07/25 12:48:42;;;;;;;3.08;2.33;;;34.70;69.70;;;;;;10288463;28;20057;-65
2022/07/25 12:53:45;;;;;;;7.40;2.10;;;34.80;66.30;;;;;;10285546;28;20065;-64
2022/07/25 12:58:49;;;;;;;3.00;1.73;;;34.40;67.10;;;;;;10306946;28;20517;-65
2022/07/25 13:03:50;;;;;;;2.92;1.90;;;34.10;67.90;;;;;;10265712;28;20374;-63
2022/07/25 13:08:52;;;;;;;5.78;1.75;;;33.40;68.10;;;;;;10254271;28;20503;-65
2022/07/25 13:13:54;;;;;;;1.63;1.38;;;33.50;68.90;;;;;;10251709;28;20725;-64
2022/07/25 13:18:56;;;;;;;3.83;1.70;;;33.50;69.00;;;;;;10266334;28;20071;-64
2022/07/25 13:23:57;;;;;;;3.85;1.88;;;33.20;69.00;;;;;;10255396;28;20058;-64
2022/07/25 13:29:00;;;;;;;4.55;1.65;;;33.30;70.20;;;;;;10255681;28;20069;-64
2022/07/25 13:34:02;;;;;;;3.25;1.70;;;33.40;68.80;;;;;;10256197;28;20486;-63
2022/07/25 13:39:05;;;;;;;2.53;1.42;;;32.40;71.10;;;;;;10244089;28;20047;-64
2022/07/25 13:44:07;;;;;;;3.42;1.50;;;32.10;74.00;;;;;;10260559;28;20387;-63
2022/07/25 13:49:10;;;;;;;2.70;2.00;;;31.90;74.60;;;;;;10245422;28;20039;-63
2022/07/25 13:54:13;;;;;;;5.28;1.75;;;31.90;75.90;;;;;;10250463;28;20143;-64
2022/07/25 13:59:15;;;;;;;2.78;2.15;;;32.20;75.40;;;;;;10271741;28;20157;-63
2022/07/25 14:04:22;;;;;;;4.60;1.88;;;32.80;74.40;;;;;;10254671;28;20497;-63
2022/07/25 14:09:23;;;;;;;3.47;1.90;;;33.50;73.60;;;;;;10287380;28;20069;-63
2022/07/25 14:14:25;;;;;;;2.00;1.23;;;33.50;69.70;;;;;;10310931;28;20073;-63
2022/07/25 14:19:27;;;;;;;2.25;1.77;;;33.70;67.50;;;;;;10290683;28;20042;-64
2022/07/25 14:24:29;;;;;;;3.85;1.55;;;33.80;68.40;;;;;;10286405;28;20051;-64
2022/07/25 14:29:30;;;;;;;1.80;1.27;;;33.90;67.40;;;;;;10282293;28;20047;-63
2022/07/25 14:34:33;;;;;;;2.92;1.70;;;34.20;65.10;;;;;;10301852;28;20054;-63
2022/07/25 14:39:35;;;;;;;4.13;1.90;;;34.20;65.90;;;;;;10311063;28;20050;-64
2022/07/25 14:44:37;;;;;;;3.40;2.03;;;34.20;66.30;;;;;;10281919;28;20054;-64
2022/07/25 14:49:39;;;;;;;3.25;1.50;;;33.90;64.90;;;;;;10296868;28;20097;-61
2022/07/25 14:54:41;;;;;;;2.53;1.58;;;34.20;65.70;;;;;;10292170;28;20046;-64
2022/07/25 14:59:43;;;;;;;2.05;1.55;;;34.20;65.30;;;;;;10286384;28;20390;-64
2022/07/25 15:04:44;;;;;;;5.05;1.90;;;34.10;65.30;;;;;;10292630;28;20116;-64
2022/07/25 15:09:46;;;;;;;2.80;1.83;;;34.70;66.00;;;;;;10291024;28;20119;-64
2022/07/25 15:14:48;;;;;;;4.32;2.10;;;34.90;65.10;;;;;;10291385;28;20494;-64
2022/07/25 15:19:49;;;;;;;3.33;2.00;;;35.10;65.40;;;;;;10284683;28;20053;-64
2022/07/25 15:24:51;;;;;;;2.75;2.05;;;35.10;65.60;;;;;;10290139;28;20051;-64
2022/07/25 15:30:13;;;;;;;2.58;1.50;;;35.00;65.50;;;;;;10297581;28;20051;-64
2022/07/25 15:35:15;;;;;;;4.97;1.55;;;35.60;62.40;;;;;;10295665;28;20084;-63
2022/07/25 15:40:16;;;;;;;2.97;1.55;;;35.20;63.00;;;;;;10290941;28;20157;-63
2022/07/25 15:45:22;;;;;;;5.75;2.00;;;35.20;62.80;;;;;;10300687;28;20054;-63
2022/07/25 15:50:36;;;;;;;2.83;1.17;;;35.60;62.90;;;;;;10276701;28;20083;-63
2022/07/25 15:55:39;;;;;;;3.05;1.70;;;35.40;62.00;;;;;;10294550;28;20493;-63
2022/07/25 16:00:42;;;;;;;2.33;1.15;;;34.60;62.80;;;;;;10285160;28;20054;-63
2022/07/25 16:05:43;;;;;;;2.25;1.45;;;34.40;63.20;;;;;;10274747;28;20043;-63
2022/07/25 16:10:45;;;;;;;3.80;1.80;;;33.80;64.50;;;;;;10300720;28;20054;-63
2022/07/25 16:15:47;;;;;;;3.67;2.50;;;33.60;65.80;;;;;;10284759;28;20077;-63
2022/07/25 16:20:49;;;;;;;4.30;1.52;;;33.50;66.60;;;;;;10299200;28;20073;-63
2022/07/25 16:25:51;;;;;;;3.58;1.67;;;33.50;67.60;;;;;;10287791;28;20748;-63
2022/07/25 16:30:53;;;;;;;2.97;1.70;;;33.30;67.00;;;;;;10287545;28;20117;-63
2022/07/25 16:35:56;;;;;;;1.77;1.60;;;32.80;66.30;;;;;;10295895;28;20050;-63
2022/07/25 16:40:57;;;;;;;2.80;1.45;;;32.60;66.50;;;;;;10288269;28;20417;-63
2022/07/25 16:46:00;;;;;;;6.18;1.65;;;32.50;67.20;;;;;;10279841;28;20047;-63
2022/07/25 16:51:03;;;;;;;2.90;1.83;;;32.50;73.10;;;;;;10279541;28;20058;-64
2022/07/25 16:56:05;;;;;;;6.60;2.13;;;31.80;75.80;;;;;;10289842;28;20046;-63
2022/07/25 17:01:07;;;;;;;4.50;1.70;;;31.20;77.80;;;;;;10297597;28;20054;-63
2022/07/25 17:06:08;;;;;;;8.00;1.90;;;31.10;79.10;;;;;;10292918;28;20050;-63
2022/07/25 17:11:10;;;;;;;4.70;1.92;;;30.70;80.30;;;;;;10251939;28;20062;-63
2022/07/25 17:16:12;;;;;;;5.47;1.90;;;30.80;80.50;;;;;;10253363;28;20090;-63
2022/07/25 17:21:15;;;;;;;3.55;1.60;;;30.40;80.90;;;;;;10254231;28;20050;-63
2022/07/25 17:26:18;;;;;;;2.08;1.70;;;30.40;81.30;;;;;;10250885;28;20054;-63
2022/07/25 17:31:21;;;;;;;2.85;1.30;;;30.40;81.80;;;;;;10249088;28;20047;-64
2022/07/25 17:36:22;;;;;;;3.08;2.00;;;30.20;82.30;;;;;;10262998;28;20046;-63
2022/07/25 17:41:24;;;;;;;2.20;1.15;;;30.20;82.40;;;;;;10247550;28;20045;-63
2022/07/25 17:46:26;;;;;;;2.80;1.25;;;30.10;81.70;;;;;;10248697;28;20054;-63
2022/07/25 17:51:28;;;;;;;1.95;1.13;;;29.50;83.10;;;;;;10267430;28;20137;-63
2022/07/25 17:56:29;;;;;;;2.63;1.20;;;29.70;83.50;;;;;;10228122;28;20067;-63
2022/07/25 18:01:31;;;;;;;3.78;0.73;;;30.10;83.10;;;;;;10276473;28;20101;-63
2022/07/25 18:06:33;;;;;;;5.28;0.70;;;30.20;83.10;;;;;;10229598;28;20138;-63
2022/07/25 18:11:34;;;;;;;0.90;0.50;;;29.40;84.10;;;;;;10265677;28;20051;-63
2022/07/25 18:16:36;;;;;;;2.95;0.70;;;29.10;84.80;;;;;;10247335;28;20051;-63
2022/07/25 18:21:38;;;;;;;3.15;0.70;;;28.60;86.20;;;;;;10232079;28;20518;-63
2022/07/25 18:26:40;;;;;;;3.53;0.50;;;28.30;87.40;;;;;;10243900;28;20191;-63
2022/07/25 18:31:41;;;;;;;2.30;0.60;;;28.00;88.00;;;;;;10260480;28;20117;-63
2022/07/25 18:36:43;;;;;;;1.73;0.98;;;27.50;88.40;;;;;;10250853;28;20162;-63
2022/07/25 18:41:45;;;;;;;2.63;0.60;;;27.20;89.20;;;;;;10256008;28;20062;-63
2022/07/25 18:46:47;;;;;;;4.60;0.47;;;26.80;90.20;;;;;;10253069;28;20516;-63
2022/07/25 18:51:49;;;;;;;3.35;0.50;;;26.60;90.50;;;;;;10261814;28;20055;-62
2022/07/25 18:56:50;;;;;;;2.40;0.80;;;26.40;91.10;;;;;;10247659;28;20047;-63
2022/07/25 19:01:53;;;;;;;4.93;0.60;;;26.10;91.30;;;;;;10266825;28;20058;-63
2022/07/25 19:06:55;;;;;;;2.08;0.50;;;25.90;91.70;;;;;;10269908;28;20047;-63
2022/07/25 19:11:57;;;;;;;1.63;0.60;;;25.80;92.30;;;;;;10268703;28;20058;-63
2022/07/25 19:17:00;;;;;;;4.85;0.60;;;25.60;92.60;;;;;;10259364;28;20051;-63
2022/07/25 19:22:02;;;;;;;3.22;0.70;;;25.50;93.20;;;;;;10265958;28;20055;-59
2022/07/25 19:27:04;;;;;;;6.88;0.60;;;25.30;93.80;;;;;;10271395;28;20051;-59
2022/07/25 19:32:06;;;;;;;3.75;0.70;;;25.20;94.40;;;;;;10256695;28;20043;-58
2022/07/25 19:37:08;;;;;;;5.00;0.77;;;25.00;95.00;;;;;;10266356;28;20046;-59
2022/07/25 19:42:11;;;;;;;1.92;0.50;;;24.90;95.50;;;;;;10276557;28;20051;-59
2022/07/25 19:47:12;;;;;;;4.28;0.55;;;24.80;96.10;;;;;;10268628;28;20047;-60
2022/07/25 19:52:14;;;;;;;4.22;0.57;;;24.80;96.70;;;;;;10255649;28;20055;-59
2022/07/25 19:57:16;;;;;;;4.32;0.50;;;24.60;97.30;;;;;;10267861;28;20050;-59
2022/07/25 20:02:18;;;;;;;2.40;0.63;;;24.50;98.00;;;;;;10265031;28;20053;-59
2022/07/25 20:07:20;;;;;;;2.45;0.82;;;24.40;98.40;;;;;;10260074;28;20051;-59
2022/07/25 20:12:22;;;;;;;2.08;0.50;;;24.30;99.00;;;;;;10295201;28;20561;-59
2022/07/25 20:17:25;;;;;;;2.45;0.50;;;24.20;99.50;;;;;;10286316;28;20058;-59
2022/07/25 20:22:27;;;;;;;6.53;0.73;;;24.20;99.80;;;;;;10292812;28;20108;-59
2022/07/25 20:27:28;;;;;;;4.20;0.95;;;24.20;99.90;;;;;;10293040;28;20058;-59
2022/07/25 20:32:30;;;;;;;3.35;0.50;;;24.10;99.90;;;;;;10291106;28;20050;-59
2022/07/25 20:37:32;;;;;;;2.08;0.40;;;24.00;99.90;;;;;;10280908;28;20566;-59
2022/07/25 20:42:36;;;;;;;3.85;0.40;;;24.00;99.90;;;;;;10291854;28;20082;-59
2022/07/25 20:47:37;;;;;;;3.60;0.40;;;24.00;99.90;;;;;;10284923;28;20465;-59
2022/07/25 20:52:39;;;;;;;5.03;0.50;;;24.00;99.90;;;;;;10282118;28;20121;-59
2022/07/25 20:57:41;;;;;;;7.32;0.50;;;23.90;99.90;;;;;;10285822;28;20038;-59
2022/07/25 21:02:46;;;;;;;4.63;0.50;;;23.80;99.90;;;;;;10298641;28;20043;-59
2022/07/25 21:07:48;;;;;;;1.88;0.40;;;23.80;99.90;;;;;;10282965;28;20050;-61
2022/07/25 21:12:50;;;;;;;2.80;0.50;;;23.70;99.90;;;;;;10285451;28;20046;-61
2022/07/25 21:17:51;;;;;;;1.23;0.32;;;23.70;99.90;;;;;;10287268;28;20053;-61
2022/07/25 21:22:54;;;;;;;4.03;0.45;;;23.70;99.90;;;;;;10291521;28;20058;-61
2022/07/25 21:27:55;;;;;;;1.23;0.40;;;23.60;99.90;;;;;;10279330;28;20054;-61
2022/07/25 21:32:57;;;;;;;1.92;0.60;;;23.60;99.90;;;;;;10290609;28;20058;-60
2022/07/25 21:37:59;;;;;;;1.40;0.50;;;23.50;99.90;;;;;;10288061;28;20050;-61
2022/07/25 21:43:01;;;;;;;3.78;0.50;;;23.50;99.90;;;;;;10297320;28;20055;-61
2022/07/25 21:48:06;;;;;;;3.42;0.55;;;23.50;99.90;;;;;;10290355;28;20510;-61
2022/07/25 21:53:11;;;;;;;4.85;0.50;;;23.40;99.90;;;;;;10287129;28;20406;-61
2022/07/25 21:58:12;;;;;;;2.92;0.60;;;23.50;99.90;;;;;;10293223;28;20046;-61
2022/07/25 22:03:14;;;;;;;0.82;0.30;;;23.40;99.90;;;;;;10290605;28;20050;-61
2022/07/25 22:08:16;;;;;;;3.10;0.55;;;23.40;99.90;;;;;;10274161;28;20058;-61
2022/07/25 22:13:17;;;;;;;2.45;0.50;;;23.40;99.90;;;;;;10275010;28;20415;-61
2022/07/25 22:18:19;;;;;;;2.95;0.60;;;23.40;99.90;;;;;;10266381;28;20051;-61
2022/07/25 22:23:22;;;;;;;1.10;0.60;;;23.40;99.90;;;;;;10259662;28;20082;-61
2022/07/25 22:28:24;;;;;;;5.53;0.43;;;23.30;99.90;;;;;;10267464;28;20489;-61
2022/07/25 22:33:29;;;;;;;1.55;0.68;;;23.30;99.90;;;;;;10267677;28;20050;-61
2022/07/25 22:38:31;;;;;;;8.13;0.70;;;23.20;99.90;;;;;;10287921;28;20047;-61
2022/07/25 22:43:33;;;;;;;2.88;0.50;;;23.10;99.90;;;;;;10275005;28;20055;-61
2022/07/25 22:48:55;;;;;;;3.67;0.40;;;23.00;99.90;;;;;;10270758;28;20078;-61
2022/07/25 22:53:58;;;;;;;3.78;0.50;;;23.00;99.90;;;;;;10272595;28;20572;-61
2022/07/25 22:59:00;;;;;;;3.40;0.40;;;22.80;99.90;;;;;;10259850;28;20046;-61
2022/07/25 23:04:01;;;;;;;3.90;0.50;;;22.80;99.90;;;;;;10268502;28;20046;-62
2022/07/25 23:09:03;;;;;;;7.50;0.52;;;22.60;99.90;;;;;;10271161;28;20046;-62
2022/07/25 23:14:06;;;;;;;3.78;0.50;;;22.60;99.90;;;;;;10276151;28;20059;-61
2022/07/25 23:19:07;;;;;;;3.10;0.38;;;22.50;99.90;;;;;;10268035;28;20106;-61
2022/07/25 23:24:10;;;;;;;2.78;0.50;;;22.30;99.90;;;;;;10271505;28;20047;-62
2022/07/25 23:29:11;;;;;;;3.72;0.40;;;22.30;99.90;;;;;;10261390;28;20402;-61
2022/07/25 23:34:13;;;;;;;3.60;0.40;;;22.20;99.90;;;;;;10271779;28;20049;-61
2022/07/25 23:39:15;;;;;;;4.53;0.77;;;22.20;99.90;;;;;;10274507;28;20065;-61
2022/07/25 23:44:17;;;;;;;3.83;0.40;;;22.20;99.90;;;;;;10245544;28;20113;-61
2022/07/25 23:49:18;;;;;;;2.80;0.38;;;22.00;99.90;;;;;;10267537;28;20117;-61
2022/07/25 23:54:20;;;;;;;2.10;0.40;;;21.90;99.90;;;;;;10274946;28;20120;-62
2022/07/25 23:59:22;;;;;;;5.10;0.47;;;21.90;99.90;;;;;;10261814;28;20047;-61
